createdAt,value
2018-12-04T00:01:10.311Z,101573.14
2018-12-04T00:03:39.102Z,101572.72
2018-12-04T00:06:07.714Z,101579.27
2018-12-04T00:08:36.340Z,101578.42
2018-12-04T00:11:04.994Z,101587.89
2018-12-04T00:13:33.590Z,101590.49
2018-12-04T00:16:02.260Z,101590.49
2018-12-04T00:18:30.872Z,101586.59
2018-12-04T00:20:59.638Z,101592.20
2018-12-04T00:23:28.275Z,101597.41
2018-12-04T00:25:56.904Z,101606.08
2018-12-04T00:28:25.530Z,101613.05
2018-12-04T00:30:54.141Z,101619.13
2018-12-04T00:33:22.782Z,101619.58
2018-12-04T00:35:51.402Z,101621.75
2018-12-04T00:38:20.062Z,101625.27
2018-12-04T00:40:48.680Z,101623.61
2018-12-04T00:43:17.290Z,101632.70
2018-12-04T00:45:45.924Z,101638.36
2018-12-04T00:48:14.559Z,101640.60
2018-12-04T00:50:43.255Z,101645.85
2018-12-04T00:53:11.891Z,101640.30
2018-12-04T00:55:41.019Z,101639.49
2018-12-04T00:58:09.634Z,101650.77
2018-12-04T01:00:38.913Z,101651.26
2018-12-04T01:03:07.611Z,101658.22
2018-12-04T01:05:36.223Z,101664.33
2018-12-04T01:08:04.861Z,101666.14
2018-12-04T01:10:33.506Z,101668.80
2018-12-04T01:13:02.700Z,101675.31
2018-12-04T01:15:31.322Z,101678.81
2018-12-04T01:18:00.189Z,101680.55
2018-12-04T01:20:28.811Z,101684.45
2018-12-04T01:22:57.445Z,101681.00
2018-12-04T01:25:26.094Z,101676.22
2018-12-04T01:27:54.725Z,101685.31
2018-12-04T01:30:23.366Z,101681.44
2018-12-04T01:32:51.998Z,101685.82
2018-12-04T01:35:20.670Z,101691.02
2018-12-04T01:37:49.412Z,101696.23
2018-12-04T01:40:18.182Z,101700.18
2018-12-04T01:42:46.802Z,101696.36
2018-12-04T01:45:16.549Z,101695.55
2018-12-04T01:47:45.315Z,101708.61
2018-12-04T01:50:15.459Z,101715.14
2018-12-04T01:52:44.126Z,101716.12
2018-12-04T01:55:12.909Z,101719.64
2018-12-04T01:57:41.762Z,101723.61
2018-12-04T02:00:10.987Z,101729.73
2018-12-04T02:02:39.669Z,101736.72
2018-12-04T02:05:08.319Z,101742.41
2018-12-04T02:07:37.529Z,101748.09
2018-12-04T02:10:08.347Z,101757.25
2018-12-04T02:12:37.039Z,101759.96
2018-12-04T02:15:05.918Z,101777.75
2018-12-04T02:17:35.218Z,101777.81
2018-12-04T02:20:04.064Z,101779.17
2018-12-04T02:22:34.137Z,101786.60
2018-12-04T02:25:03.339Z,101788.87
2018-12-04T02:27:32.027Z,101794.12
2018-12-04T02:30:00.629Z,101793.37
2018-12-04T02:32:29.883Z,101789.55
2018-12-04T02:34:59.115Z,101792.69
2018-12-04T02:37:28.731Z,101795.82
2018-12-04T02:39:58.749Z,101800.20
2018-12-04T02:42:27.378Z,101818.90
2018-12-04T02:44:56.124Z,101817.27
2018-12-04T02:47:24.880Z,101821.21
2018-12-04T02:49:53.592Z,101827.79
2018-12-04T02:52:23.120Z,101836.06
2018-12-04T02:54:53.052Z,101840.88
2018-12-04T02:57:22.243Z,101843.60
2018-12-04T02:59:50.973Z,101847.98
2018-12-04T03:02:19.862Z,101847.64
2018-12-04T03:04:49.310Z,101853.74
2018-12-04T03:07:18.126Z,101851.67
2018-12-04T03:09:47.706Z,101852.16
2018-12-04T03:12:17.150Z,101857.77
2018-12-04T03:14:45.738Z,101861.70
2018-12-04T03:17:15.527Z,101860.88
2018-12-04T03:19:44.761Z,101862.23
2018-12-04T03:22:14.778Z,101858.83
2018-12-04T03:24:43.501Z,101862.33
2018-12-04T03:27:12.906Z,101871.91
2018-12-04T03:29:41.750Z,101867.25
2018-12-04T03:32:10.386Z,101871.61
2018-12-04T03:34:40.397Z,101875.57
2018-12-04T03:37:10.264Z,101874.75
2018-12-04T03:39:38.970Z,101872.64
2018-12-04T03:42:09.008Z,101873.98
2018-12-04T03:44:38.506Z,101873.16
2018-12-04T03:47:07.125Z,101880.97
2018-12-04T03:49:35.861Z,101898.66
2018-12-04T03:52:05.711Z,101908.23
2018-12-04T03:54:34.955Z,101906.98
2018-12-04T03:57:03.602Z,101916.94
2018-12-04T03:59:32.814Z,101921.76
2018-12-04T04:02:02.820Z,101929.13
2018-12-04T04:04:31.448Z,101931.80
2018-12-04T04:07:00.277Z,101932.26
2018-12-04T04:09:28.919Z,101934.87
2018-12-04T04:11:57.678Z,101941.81
2018-12-04T04:14:27.838Z,101943.58
2018-12-04T04:16:56.582Z,101948.36
2018-12-04T04:19:25.310Z,101951.41
2018-12-04T04:21:53.918Z,101958.77
2018-12-04T04:24:22.576Z,101952.34
2018-12-04T04:26:51.328Z,101961.03
2018-12-04T04:29:19.919Z,101959.33
2018-12-04T04:31:49.258Z,101963.24
2018-12-04T04:34:18.676Z,101960.69
2018-12-04T04:36:47.442Z,101969.77
2018-12-04T04:39:16.849Z,101975.87
2018-12-04T04:41:45.546Z,101987.97
2018-12-04T04:44:15.132Z,101991.84
2018-12-04T04:46:51.539Z,101997.04
2018-12-04T04:49:20.410Z,101991.46
2018-12-04T04:51:49.142Z,101988.50
2018-12-04T04:54:17.883Z,101988.95
2018-12-04T04:56:47.153Z,101999.73
2018-12-04T04:59:16.582Z,101995.47
2018-12-04T05:01:45.215Z,102007.56
2018-12-04T05:04:13.839Z,101999.40
2018-12-04T05:06:43.178Z,101997.73
2018-12-04T05:09:11.858Z,101995.16
2018-12-04T05:11:40.531Z,101998.63
2018-12-04T05:14:09.931Z,101996.06
2018-12-04T05:16:38.691Z,102007.30
2018-12-04T05:19:07.427Z,102011.62
2018-12-04T05:21:36.091Z,102015.95
2018-12-04T05:24:04.918Z,102019.42
2018-12-04T05:26:33.693Z,102025.02
2018-12-04T05:29:02.486Z,102023.34
2018-12-04T05:31:32.978Z,102034.13
2018-12-04T05:34:02.250Z,102026.39
2018-12-04T05:36:31.862Z,102030.70
2018-12-04T05:39:01.175Z,102027.70
2018-12-04T05:41:30.630Z,102029.45
2018-12-04T05:43:59.559Z,102038.91
2018-12-04T05:46:28.925Z,102039.80
2018-12-04T05:48:58.118Z,102044.09
2018-12-04T05:51:26.854Z,102044.58
2018-12-04T05:53:56.162Z,102055.77
2018-12-04T05:56:25.456Z,102051.02
2018-12-04T05:58:55.662Z,102053.19
2018-12-04T06:01:24.467Z,102055.80
2018-12-04T06:03:54.788Z,102065.72
2018-12-04T06:06:25.358Z,102065.28
2018-12-04T06:08:55.459Z,102073.05
2018-12-04T06:11:24.185Z,102082.09
2018-12-04T06:13:53.415Z,102090.73
2018-12-04T06:16:22.049Z,102095.02
2018-12-04T06:18:50.754Z,102103.22
2018-12-04T06:21:19.424Z,102110.98
2018-12-04T06:23:48.069Z,102100.66
2018-12-04T06:26:17.002Z,102106.27
2018-12-04T06:28:45.691Z,102110.15
2018-12-04T06:31:14.377Z,102105.84
2018-12-04T06:33:42.993Z,102110.15
2018-12-04T06:36:11.809Z,102113.56
2018-12-04T06:38:40.430Z,102110.55
2018-12-04T06:41:09.126Z,102114.86
2018-12-04T06:43:38.339Z,102123.48
2018-12-04T06:46:07.866Z,102130.77
2018-12-04T06:48:37.478Z,102135.09
2018-12-04T06:51:06.252Z,102141.95
2018-12-04T06:53:34.871Z,102142.81
2018-12-04T06:56:03.498Z,102145.37
2018-12-04T06:58:32.999Z,102148.83
2018-12-04T07:01:01.607Z,102153.99
2018-12-04T07:03:30.235Z,102156.58
2018-12-04T07:05:58.848Z,102150.56
2018-12-04T07:08:27.454Z,102147.55
2018-12-04T07:10:56.211Z,102146.23
2018-12-04T07:13:24.834Z,102154.83
2018-12-04T07:15:53.453Z,102158.28
2018-12-04T07:18:22.075Z,102160.45
2018-12-04T07:20:50.703Z,102163.03
2018-12-04T07:23:19.306Z,102163.46
2018-12-04T07:25:47.931Z,102164.33
2018-12-04T07:28:16.546Z,102166.50
2018-12-04T07:30:45.171Z,102167.36
2018-12-04T07:33:14.022Z,102170.38
2018-12-04T07:35:42.650Z,102176.84
2018-12-04T07:38:11.300Z,102189.32
2018-12-04T07:40:39.920Z,102198.80
2018-12-04T07:43:09.442Z,102207.84
2018-12-04T07:45:38.230Z,102207.42
2018-12-04T07:48:06.879Z,102215.18
2018-12-04T07:50:35.513Z,102220.77
2018-12-04T07:53:04.172Z,102223.77
2018-12-04T07:55:32.795Z,102225.51
2018-12-04T07:58:01.414Z,102228.08
2018-12-04T08:00:30.047Z,102217.33
2018-12-04T08:02:58.705Z,102223.80
2018-12-04T08:05:27.449Z,102224.66
2018-12-04T08:07:56.112Z,102226.36
2018-12-04T08:10:24.781Z,102223.78
2018-12-04T08:12:53.436Z,102228.09
2018-12-04T08:15:22.086Z,102222.08
2018-12-04T08:17:50.734Z,102221.64
2018-12-04T08:20:19.390Z,102226.37
2018-12-04T08:22:48.032Z,102241.00
2018-12-04T08:25:16.715Z,102252.61
2018-12-04T08:27:45.332Z,102253.05
2018-12-04T08:30:14.013Z,102264.24
2018-12-04T08:32:42.636Z,102270.68
2018-12-04T08:35:11.604Z,102275.86
2018-12-04T08:37:40.229Z,102285.73
2018-12-04T08:40:09.185Z,102285.75
2018-12-04T08:42:37.798Z,102298.23
2018-12-04T08:45:08.250Z,102291.75
2018-12-04T08:47:36.873Z,102302.54
2018-12-04T08:50:06.690Z,102302.97
2018-12-04T08:52:35.385Z,102294.78
2018-12-04T08:55:04.155Z,102298.66
2018-12-04T08:57:32.787Z,102302.07
2018-12-04T09:00:01.461Z,102297.36
2018-12-04T09:02:30.098Z,102296.92
2018-12-04T09:04:58.739Z,102301.67
2018-12-04T09:07:27.362Z,102298.22
2018-12-04T09:09:56.018Z,102302.52
2018-12-04T09:12:24.686Z,102301.64
2018-12-04T09:14:53.388Z,102299.48
2018-12-04T09:17:22.083Z,102299.03
2018-12-04T09:19:50.750Z,102291.27
2018-12-04T09:22:19.557Z,102299.04
2018-12-04T09:24:48.879Z,102295.98
2018-12-04T09:27:17.543Z,102303.73
2018-12-04T09:29:46.319Z,102300.73
2018-12-04T09:32:14.982Z,102305.88
2018-12-04T09:34:43.650Z,102309.32
2018-12-04T09:37:12.283Z,102313.62
2018-12-04T09:39:40.935Z,102319.20
2018-12-04T09:42:09.576Z,102319.62
2018-12-04T09:44:38.231Z,102319.16
2018-12-04T09:47:07.600Z,102322.16
2018-12-04T09:49:36.282Z,102327.29
2018-12-04T09:52:05.075Z,102327.27
2018-12-04T09:54:33.916Z,102324.20
2018-12-04T09:57:02.588Z,102319.88
2018-12-04T09:59:31.233Z,102314.25
2018-12-04T10:01:59.870Z,102310.33
2018-12-04T10:04:28.490Z,102310.70
2018-12-04T10:06:57.134Z,102313.67
2018-12-04T10:09:25.837Z,102314.91
2018-12-04T10:11:55.334Z,102306.23
2018-12-04T10:14:23.996Z,102307.90
2018-12-04T10:16:52.647Z,102313.45
2018-12-04T10:19:21.300Z,102304.31
2018-12-04T10:21:49.989Z,102310.72
2018-12-04T10:24:18.622Z,102314.05
2018-12-04T10:26:51.380Z,102315.68
2018-12-04T10:29:19.990Z,102323.78
2018-12-04T10:31:55.811Z,102327.12
2018-12-04T10:34:19.254Z,102331.37
2018-12-04T10:36:47.926Z,102339.92
2018-12-04T10:39:16.589Z,102339.87
2018-12-04T10:41:45.464Z,102342.80
2018-12-04T10:44:14.084Z,102348.36
2018-12-04T10:46:42.730Z,102350.03
2018-12-04T10:49:11.377Z,102345.20
2018-12-04T10:51:40.017Z,102336.89
2018-12-04T10:54:08.633Z,102328.14
2018-12-04T10:56:37.302Z,102324.58
2018-12-04T10:59:05.975Z,102311.96
2018-12-04T11:01:39.818Z,102312.36
2018-12-04T11:04:08.462Z,102307.96
2018-12-04T11:06:37.134Z,102304.86
2018-12-04T11:09:08.575Z,102298.75
2018-12-04T11:11:37.264Z,102292.23
2018-12-04T11:14:05.935Z,102300.84
2018-12-04T11:16:34.560Z,102301.67
2018-12-04T11:19:03.205Z,102293.02
2018-12-04T11:21:31.852Z,102284.36
2018-12-04T11:24:00.483Z,102282.20
2018-12-04T11:26:29.582Z,102275.27
2018-12-04T11:28:58.246Z,102270.94
2018-12-04T11:31:26.867Z,102270.07
2018-12-04T11:33:55.518Z,102276.56
2018-12-04T11:36:24.182Z,102284.35
2018-12-04T11:38:52.828Z,102280.46
2018-12-04T11:41:21.469Z,102281.76
2018-12-04T11:43:50.111Z,102287.42
2018-12-04T11:46:18.755Z,102279.64
2018-12-04T11:48:47.416Z,102284.00
2018-12-04T11:51:16.055Z,102290.02
2018-12-04T11:53:44.699Z,102293.95
2018-12-04T11:56:13.335Z,102297.42
2018-12-04T11:58:41.987Z,102293.09
2018-12-04T12:01:12.707Z,102288.72
2018-12-04T12:03:41.330Z,102298.20
2018-12-04T12:06:09.945Z,102302.09
2018-12-04T12:08:38.582Z,102306.00
2018-12-04T12:11:07.207Z,102301.66
2018-12-04T12:13:35.860Z,102305.13
2018-12-04T12:16:04.558Z,102302.10
2018-12-04T12:18:33.180Z,102318.15
2018-12-04T12:21:01.852Z,102326.38
2018-12-04T12:23:30.492Z,102332.03
2018-12-04T12:25:59.136Z,102333.37
2018-12-04T12:28:27.766Z,102335.57
2018-12-04T12:30:56.418Z,102339.47
2018-12-04T12:33:25.137Z,102340.37
2018-12-04T12:35:53.868Z,102351.19
2018-12-04T12:38:22.579Z,102350.79
2018-12-04T12:40:51.250Z,102355.11
2018-12-04T12:43:19.985Z,102346.03
2018-12-04T12:45:48.615Z,102330.53
2018-12-04T12:48:17.345Z,102323.17
2018-12-04T12:50:46.058Z,102317.98
2018-12-04T12:53:14.750Z,102325.34
2018-12-04T12:55:43.367Z,102333.98
2018-12-04T12:58:12.001Z,102331.36
2018-12-04T13:00:40.781Z,102330.02
2018-12-04T13:03:09.655Z,102328.72
2018-12-04T13:05:38.291Z,102322.23
2018-12-04T13:08:06.921Z,102310.59
2018-12-04T13:10:35.554Z,102291.59
2018-12-04T13:13:04.230Z,102283.38
2018-12-04T13:15:32.889Z,102292.06
2018-12-04T13:18:01.581Z,102292.97
2018-12-04T13:20:30.271Z,102303.85
2018-12-04T13:22:58.929Z,102312.97
2018-12-04T13:25:27.705Z,102327.28
2018-12-04T13:27:56.342Z,102340.72
2018-12-04T13:30:25.122Z,102345.95
2018-12-04T13:32:53.793Z,102335.13
2018-12-04T13:35:22.448Z,102337.30
2018-12-04T13:37:51.105Z,102332.57
2018-12-04T13:40:19.784Z,102320.89
2018-12-04T13:42:48.452Z,102317.00
2018-12-04T13:45:17.250Z,102316.61
2018-12-04T13:47:45.919Z,102314.45
2018-12-04T13:50:15.229Z,102308.82
2018-12-04T13:52:43.976Z,102302.34
2018-12-04T13:55:12.659Z,102279.42
2018-12-04T13:57:41.465Z,102269.48
2018-12-04T14:00:10.499Z,102267.75
2018-12-04T14:02:39.277Z,102258.66
2018-12-04T14:05:09.080Z,102239.24
2018-12-04T14:07:37.871Z,102251.78
2018-12-04T14:10:08.594Z,102273.83
2018-12-04T14:12:37.389Z,102278.13
2018-12-04T14:15:06.599Z,102278.16
2018-12-04T14:17:35.403Z,102295.42
2018-12-04T14:20:05.224Z,102301.91
2018-12-04T14:22:33.859Z,102301.91
2018-12-04T14:25:02.546Z,102294.13
2018-12-04T14:27:31.326Z,102288.93
2018-12-04T14:29:59.990Z,102279.85
2018-12-04T14:32:28.698Z,102270.77
2018-12-04T14:34:57.367Z,102257.80
2018-12-04T14:37:26.005Z,102252.17
2018-12-04T14:39:54.671Z,102252.61
2018-12-04T14:42:23.423Z,102243.09
2018-12-04T14:44:52.102Z,102235.75
2018-12-04T14:47:20.744Z,102239.67
2018-12-04T14:49:49.510Z,102240.11
2018-12-04T14:52:18.171Z,102232.33
2018-12-04T14:54:46.852Z,102240.11
2018-12-04T14:57:15.622Z,102251.81
2018-12-04T14:59:44.944Z,102247.03
2018-12-04T15:02:13.595Z,102246.63
2018-12-04T15:04:42.441Z,102257.88
2018-12-04T15:07:11.149Z,102258.27
2018-12-04T15:09:39.894Z,102267.78
2018-12-04T15:12:08.576Z,102273.41
2018-12-04T15:14:37.237Z,102279.89
2018-12-04T15:17:05.879Z,102286.38
2018-12-04T15:19:34.512Z,102292.86
2018-12-04T15:22:03.336Z,102282.52
2018-12-04T15:24:32.078Z,102277.77
2018-12-04T15:27:00.728Z,102291.59
2018-12-04T15:29:29.377Z,102288.14
2018-12-04T15:31:58.239Z,102292.92
2018-12-04T15:34:27.008Z,102292.06
2018-12-04T15:36:56.638Z,102294.22
2018-12-04T15:39:25.629Z,102287.34
2018-12-04T15:41:54.549Z,102284.75
2018-12-04T15:44:23.221Z,102276.97
2018-12-04T15:46:51.971Z,102270.05
2018-12-04T15:49:20.635Z,102265.72
2018-12-04T15:51:49.435Z,102278.27
2018-12-04T15:54:18.179Z,102282.59
2018-12-04T15:56:46.897Z,102256.25
2018-12-04T15:59:15.530Z,102241.55
2018-12-04T16:01:44.239Z,102227.28
2018-12-04T16:04:12.887Z,102228.62
2018-12-04T16:06:41.526Z,102234.23
2018-12-04T16:09:10.186Z,102214.35
2018-12-04T16:11:38.830Z,102200.52
2018-12-04T16:14:07.507Z,102190.58
2018-12-04T16:16:36.204Z,102197.92
2018-12-04T16:19:05.014Z,102194.03
2018-12-04T16:21:33.658Z,102199.63
2018-12-04T16:24:02.320Z,102196.20
2018-12-04T16:26:31.013Z,102195.73
2018-12-04T16:28:59.734Z,102209.99
2018-12-04T16:31:28.368Z,102213.88
2018-12-04T16:33:57.035Z,102208.27
2018-12-04T16:36:25.690Z,102206.53
2018-12-04T16:38:54.323Z,102220.77
2018-12-04T16:41:23.010Z,102215.58
2018-12-04T16:43:51.675Z,102197.42
2018-12-04T16:46:20.314Z,102196.55
2018-12-04T16:48:49.058Z,102203.44
2018-12-04T16:51:17.795Z,102193.49
2018-12-04T16:53:46.487Z,102191.36
2018-12-04T16:56:15.164Z,102179.23
2018-12-04T16:58:43.839Z,102203.44
2018-12-04T17:01:12.494Z,102208.19
2018-12-04T17:03:41.166Z,102200.84
2018-12-04T17:06:09.870Z,102189.59
2018-12-04T17:08:38.509Z,102185.28
2018-12-04T17:11:07.175Z,102182.68
2018-12-04T17:13:35.814Z,102179.23
2018-12-04T17:16:04.469Z,102177.92
2018-12-04T17:18:37.707Z,102181.81
2018-12-04T17:21:03.875Z,102180.09
2018-12-04T17:23:32.525Z,102177.09
2018-12-04T17:26:01.244Z,102178.79
2018-12-04T17:28:29.881Z,102176.20
2018-12-04T17:30:58.591Z,102173.17
2018-12-04T17:33:27.232Z,102169.71
2018-12-04T17:35:55.863Z,102175.77
2018-12-04T17:38:24.654Z,102179.22
2018-12-04T17:40:53.292Z,102186.57
2018-12-04T17:43:21.927Z,102190.89
2018-12-04T17:45:50.534Z,102197.38
2018-12-04T17:48:19.291Z,102193.06
2018-12-04T17:50:47.938Z,102195.65
2018-12-04T17:53:16.565Z,102193.48
2018-12-04T17:55:45.252Z,102196.52
2018-12-04T17:58:13.862Z,102185.70
2018-12-04T18:00:42.522Z,102173.17
2018-12-04T18:03:11.173Z,102173.17
2018-12-04T18:05:39.979Z,102172.27
2018-12-04T18:08:08.666Z,102159.30
2018-12-04T18:10:37.320Z,102158.83
2018-12-04T18:13:05.958Z,102158.42
2018-12-04T18:15:34.650Z,102157.99
2018-12-04T18:18:03.357Z,102152.80
2018-12-04T18:20:32.026Z,102144.55
2018-12-04T18:23:00.715Z,102132.02
2018-12-04T18:25:29.407Z,102132.88
2018-12-04T18:27:58.080Z,102129.42
2018-12-04T18:30:26.786Z,102126.36
2018-12-04T18:32:55.533Z,102124.19
2018-12-04T18:35:24.350Z,102115.11
2018-12-04T18:37:53.035Z,102107.33
2018-12-04T18:40:21.719Z,102108.63
2018-12-04T18:42:50.426Z,102109.96
2018-12-04T18:45:19.066Z,102100.45
2018-12-04T18:47:47.718Z,102101.75
2018-12-04T18:50:16.491Z,102098.77
2018-12-04T18:52:45.135Z,102090.12
2018-12-04T18:55:19.442Z,102095.73
2018-12-04T18:57:48.834Z,102081.91
2018-12-04T19:00:17.494Z,102073.73
2018-12-04T19:02:46.387Z,102073.22
2018-12-04T19:05:15.199Z,102073.22
2018-12-04T19:07:43.858Z,102066.73
2018-12-04T19:10:12.791Z,102059.38
2018-12-04T19:12:41.615Z,102048.13
2018-12-04T19:15:12.398Z,102039.45
2018-12-04T19:17:41.032Z,102035.12
2018-12-04T19:20:09.899Z,102026.42
2018-12-04T19:22:38.619Z,102017.34
2018-12-04T19:25:07.589Z,102008.65
2018-12-04T19:27:36.402Z,102006.48
2018-12-04T19:30:06.833Z,101987.84
2018-12-04T19:32:35.463Z,101967.95
2018-12-04T19:35:04.323Z,101964.88
2018-12-04T19:37:32.975Z,101969.20
2018-12-04T19:40:01.635Z,101973.91
2018-12-04T19:42:30.306Z,101968.72
2018-12-04T19:44:59.670Z,101958.77
2018-12-04T19:47:28.350Z,101974.72
2018-12-04T19:49:57.052Z,101970.39
2018-12-04T19:52:25.693Z,101966.02
2018-12-04T19:54:54.364Z,101962.52
2018-12-04T19:57:23.007Z,101970.29
2018-12-04T19:59:51.786Z,101971.15
2018-12-04T20:02:20.565Z,101970.67
2018-12-04T20:04:49.227Z,101969.37
2018-12-04T20:07:17.897Z,101969.80
2018-12-04T20:09:46.543Z,101967.64
2018-12-04T20:12:15.212Z,101956.34
2018-12-04T20:14:43.851Z,101948.12
2018-12-04T20:17:12.491Z,101948.08
2018-12-04T20:19:41.146Z,101946.30
2018-12-04T20:22:09.760Z,101938.08
2018-12-04T20:24:38.428Z,101923.78
2018-12-04T20:27:07.059Z,101916.39
2018-12-04T20:29:35.722Z,101910.33
2018-12-04T20:32:04.490Z,101906.81
2018-12-04T20:34:33.141Z,101902.48
2018-12-04T20:37:01.857Z,101889.50
2018-12-04T20:39:30.482Z,101892.47
2018-12-04T20:41:59.249Z,101892.84
2018-12-04T20:44:27.877Z,101886.36
2018-12-04T20:46:56.518Z,101885.88
2018-12-04T20:49:25.130Z,101882.47
2018-12-04T20:51:53.751Z,101876.79
2018-12-04T20:54:22.424Z,101882.84
2018-12-04T20:56:51.134Z,101876.73
2018-12-04T20:59:19.816Z,101870.67
2018-12-04T21:01:48.655Z,101866.34
2018-12-04T21:04:17.288Z,101860.72
2018-12-04T21:06:45.900Z,101858.07
2018-12-04T21:09:15.390Z,101857.20
2018-12-04T21:11:43.995Z,101855.89
2018-12-04T21:14:12.671Z,101863.25
2018-12-04T21:16:42.727Z,101848.97
2018-12-04T21:19:11.438Z,101865.41
2018-12-04T21:21:40.866Z,101863.64
2018-12-04T21:24:09.772Z,101867.14
2018-12-04T21:26:39.283Z,101856.33
2018-12-04T21:29:13.781Z,101852.88
2018-12-04T21:31:47.813Z,101853.78
2018-12-04T21:35:20.479Z,101851.64
2018-12-04T21:37:54.443Z,101843.97
2018-12-04T21:40:28.211Z,101849.20
2018-12-04T21:43:02.379Z,101846.19
2018-12-04T21:45:36.270Z,101842.77
2018-12-04T21:48:07.432Z,101839.37
2018-12-04T21:50:36.707Z,101846.30
2018-12-04T21:53:05.722Z,101846.31
2018-12-04T21:55:35.143Z,101845.92
2018-12-04T21:58:04.562Z,101846.80
2018-12-04T22:00:33.292Z,101843.77
2018-12-04T22:03:02.106Z,101836.45
2018-12-04T22:05:30.994Z,101842.95
2018-12-04T22:07:59.756Z,101841.65
2018-12-04T22:10:28.609Z,101835.98
2018-12-04T22:12:57.394Z,101844.20
2018-12-04T22:15:27.455Z,101842.90
2018-12-04T22:17:56.165Z,101841.55
2018-12-04T22:20:25.095Z,101838.52
2018-12-04T22:22:53.730Z,101839.38
2018-12-04T22:25:23.850Z,101835.05
2018-12-04T22:27:53.541Z,101824.67
2018-12-04T22:30:22.282Z,101823.80
2018-12-04T22:32:50.898Z,101821.63
2018-12-04T22:35:19.597Z,101819.48
2018-12-04T22:37:48.258Z,101811.69
2018-12-04T22:40:16.921Z,101808.61
2018-12-04T22:42:45.550Z,101808.17
2018-12-04T22:45:19.599Z,101803.84
2018-12-04T22:47:48.239Z,101802.94
2018-12-04T22:50:16.972Z,101800.34
2018-12-04T22:52:45.626Z,101794.70
2018-12-04T22:55:14.286Z,101789.52
2018-12-04T22:57:42.956Z,101795.13
2018-12-04T23:00:27.259Z,101798.16
2018-12-04T23:02:56.004Z,101798.53
2018-12-04T23:05:24.675Z,101790.31
2018-12-04T23:07:53.298Z,101785.55
2018-12-04T23:10:21.922Z,101781.16
2018-12-04T23:12:50.574Z,101774.18
2018-12-04T23:15:19.188Z,101770.22
2018-12-04T23:17:47.840Z,101773.23
2018-12-04T23:20:16.471Z,101756.73
2018-12-04T23:22:45.141Z,101756.24
2018-12-04T23:25:14.010Z,101766.98
2018-12-04T23:27:42.675Z,101769.55
2018-12-04T23:30:11.581Z,101765.61
2018-12-04T23:32:40.267Z,101763.38
2018-12-04T23:35:08.992Z,101765.10
2018-12-04T23:37:38.612Z,101765.05
2018-12-04T23:40:07.406Z,101772.82
2018-12-04T23:42:36.154Z,101772.31
2018-12-04T23:45:05.962Z,101765.77
2018-12-04T23:47:34.598Z,101760.08
2018-12-04T23:50:03.315Z,101763.91
2018-12-04T23:52:31.942Z,101759.52
2018-12-04T23:55:00.638Z,101754.73
2018-12-04T23:57:29.268Z,101763.71
2018-12-04T23:59:57.934Z,101765.41
